sensor_id;sensor_type;location;lat;lon;timestamp;pressure;altitude;pressure_sealevel;temperature;humidity
70815;BME280;58428;49.478;10.986;2023-12-28T01:53:34;98575.41;;;4.13;100.00
70815;BME280;58428;49.478;10.986;2023-12-28T01:56:00;98576.47;;;4.12;100.00
70815;BME280;58428;49.478;10.986;2023-12-28T01:58:26;98572.16;;;4.16;100.00
70815;BME280;58428;49.478;10.986;2023-12-28T02:00:55;98574.81;;;4.16;100.00
70815;BME280;58428;49.478;10.986;2023-12-28T02:03:22;98569.78;;;4.14;100.00
70815;BME280;58428;49.478;10.986;2023-12-28T02:05:47;98569.47;;;4.16;100.00
70815;BME280;58428;49.478;10.986;2023-12-28T02:08:13;98566.28;;;4.14;100.00
70815;BME280;58428;49.478;10.986;2023-12-28T02:10:39;98582.06;;;4.15;100.00
70815;BME280;58428;49.478;10.986;2023-12-28T02:13:04;98575.16;;;4.09;100.00
70815;BME280;58428;49.478;10.986;2023-12-28T02:15:30;98576.78;;;4.10;100.00
70815;BME280;58428;49.478;10.986;2023-12-28T02:18:01;98573.28;;;4.10;100.00
70815;BME280;58428;49.478;10.986;2023-12-28T02:20:32;98571.69;;;4.09;100.00
70815;BME280;58428;49.478;10.986;2023-12-28T02:22:59;98566.06;;;4.10;100.00
70815;BME280;58428;49.478;10.986;2023-12-28T02:25:24;98569.53;;;4.11;100.00
70815;BME280;58428;49.478;10.986;2023-12-28T02:27:50;98561.50;;;4.11;100.00
70815;BME280;58428;49.478;10.986;2023-12-28T02:30:17;98557.50;;;4.08;100.00
70815;BME280;58428;49.478;10.986;2023-12-28T02:35:29;98555.03;;;4.12;100.00
70815;BME280;58428;49.478;10.986;2023-12-28T02:37:59;98554.78;;;4.13;100.00
70815;BME280;58428;49.478;10.986;2023-12-28T02:40:27;98555.56;;;4.14;100.00
70815;BME280;58428;49.478;10.986;2023-12-28T02:42:54;98567.59;;;4.16;100.00
70815;BME280;58428;49.478;10.986;2023-12-28T02:45:19;98563.31;;;4.15;100.00
70815;BME280;58428;49.478;10.986;2023-12-28T02:47:45;98572.19;;;4.11;100.00
70815;BME280;58428;49.478;10.986;2023-12-28T02:50:11;98579.28;;;3.97;100.00
70815;BME280;58428;49.478;10.986;2023-12-28T02:52:36;98573.88;;;4.02;100.00
70815;BME280;58428;49.478;10.986;2023-12-28T02:55:03;98573.09;;;3.97;100.00
70815;BME280;58428;49.478;10.986;2023-12-28T02:57:29;98572.59;;;3.95;100.00
70815;BME280;58428;49.478;10.986;2023-12-28T02:59:54;98570.50;;;3.92;100.00
70815;BME280;58428;49.478;10.986;2023-12-28T03:02:22;98559.50;;;3.93;100.00
70815;BME280;58428;49.478;10.986;2023-12-28T03:04:47;98561.94;;;3.90;100.00
70815;BME280;58428;49.478;10.986;2023-12-28T03:07:13;98571.28;;;3.92;100.00
70815;BME280;58428;49.478;10.986;2023-12-28T03:09:38;98568.34;;;3.94;100.00
70815;BME280;58428;49.478;10.986;2023-12-28T03:12:05;98568.56;;;3.97;100.00
70815;BME280;58428;49.478;10.986;2023-12-28T03:14:33;98567.47;;;3.98;100.00
70815;BME280;58428;49.478;10.986;2023-12-28T03:17:00;98565.31;;;4.00;100.00
70815;BME280;58428;49.478;10.986;2023-12-28T03:19:26;98572.28;;;4.01;100.00
70815;BME280;58428;49.478;10.986;2023-12-28T03:21:54;98574.16;;;4.01;100.00
70815;BME280;58428;49.478;10.986;2023-12-28T03:24:20;98572.28;;;4.01;100.00
70815;BME280;58428;49.478;10.986;2023-12-28T03:26:46;98576.53;;;4.02;100.00
70815;BME280;58428;49.478;10.986;2023-12-28T03:29:11;98588.34;;;4.01;100.00
70815;BME280;58428;49.478;10.986;2023-12-28T03:31:39;98586.72;;;4.05;100.00
70815;BME280;58428;49.478;10.986;2023-12-28T03:34:06;98580.56;;;4.04;100.00
70815;BME280;58428;49.478;10.986;2023-12-28T03:36:32;98579.47;;;4.05;100.00
70815;BME280;58428;49.478;10.986;2023-12-28T03:38:57;98582.94;;;4.06;100.00
70815;BME280;58428;49.478;10.986;2023-12-28T03:41:22;98581.88;;;4.07;100.00
70815;BME280;58428;49.478;10.986;2023-12-28T03:43:48;98580.00;;;4.07;100.00
70815;BME280;58428;49.478;10.986;2023-12-28T03:46:14;98581.88;;;4.07;100.00
70815;BME280;58428;49.478;10.986;2023-12-28T03:48:40;98581.88;;;4.07;100.00
70815;BME280;58428;49.478;10.986;2023-12-28T03:51:06;98585.34;;;4.07;100.00
70815;BME280;58428;49.478;10.986;2023-12-28T03:53:31;98583.75;;;4.06;100.00
70815;BME280;58428;49.478;10.986;2023-12-28T03:56:00;98595.53;;;4.05;100.00
70815;BME280;58428;49.478;10.986;2023-12-28T03:58:27;98589.38;;;4.05;100.00
70815;BME280;58428;49.478;10.986;2023-12-28T04:00:52;98588.28;;;4.06;100.00
70815;BME280;58428;49.478;10.986;2023-12-28T04:03:18;98580.50;;;4.09;100.00
70815;BME280;58428;49.478;10.986;2023-12-28T04:05:43;98579.72;;;4.09;100.00
70815;BME280;58428;49.478;10.986;2023-12-28T04:08:09;98566.84;;;4.11;100.00
70815;BME280;58428;49.478;10.986;2023-12-28T04:10:35;98578.94;;;4.08;100.00
70815;BME280;58428;49.478;10.986;2023-12-28T04:13:03;98562.28;;;4.11;100.00
70815;BME280;58428;49.478;10.986;2023-12-28T04:15:32;98579.97;;;4.12;100.00
70815;BME280;58428;49.478;10.986;2023-12-28T04:17:57;98573.28;;;4.10;100.00
70815;BME280;58428;49.478;10.986;2023-12-28T04:20:23;98557.44;;;4.13;100.00
70815;BME280;58428;49.478;10.986;2023-12-28T04:22:49;98557.00;;;4.06;100.00
70815;BME280;58428;49.478;10.986;2023-12-28T04:25:22;98567.13;;;4.09;100.00
70815;BME280;58428;49.478;10.986;2023-12-28T04:27:48;98564.34;;;4.19;100.00
70815;BME280;58428;49.478;10.986;2023-12-28T04:30:14;98561.44;;;4.16;100.00
70815;BME280;58428;49.478;10.986;2023-12-28T04:32:41;98558.47;;;4.17;100.00
70815;BME280;58428;49.478;10.986;2023-12-28T04:35:09;98557.69;;;4.17;100.00
70815;BME280;58428;49.478;10.986;2023-12-28T04:37:36;98557.09;;;4.20;100.00
70815;BME280;58428;49.478;10.986;2023-12-28T04:40:02;98559.47;;;4.26;100.00
70815;BME280;58428;49.478;10.986;2023-12-28T04:42:29;98569.88;;;4.28;100.00
70815;BME280;58428;49.478;10.986;2023-12-28T04:44:54;98555.94;;;4.31;100.00
70815;BME280;58428;49.478;10.986;2023-12-28T04:47:20;98558.88;;;4.34;100.00
70815;BME280;58428;49.478;10.986;2023-12-28T04:49:46;98556.63;;;4.41;100.00
70815;BME280;58428;49.478;10.986;2023-12-28T04:52:12;98565.19;;;4.43;100.00
70815;BME280;58428;49.478;10.986;2023-12-28T04:54:40;98549.31;;;4.51;100.00
70815;BME280;58428;49.478;10.986;2023-12-28T04:57:07;98553.06;;;4.50;100.00
70815;BME280;58428;49.478;10.986;2023-12-28T04:59:42;98567.50;;;4.54;100.00
70815;BME280;58428;49.478;10.986;2023-12-28T05:02:07;98557.81;;;4.58;100.00
70815;BME280;58428;49.478;10.986;2023-12-28T05:04:36;98565.22;;;4.66;100.00
70815;BME280;58428;49.478;10.986;2023-12-28T05:07:03;98569.22;;;4.69;100.00
70815;BME280;58428;49.478;10.986;2023-12-28T05:09:29;98579.09;;;4.73;100.00
70815;BME280;58428;49.478;10.986;2023-12-28T05:11:57;98579.31;;;4.76;100.00
70815;BME280;58428;49.478;10.986;2023-12-28T05:14:25;98584.59;;;4.81;100.00
70815;BME280;58428;49.478;10.986;2023-12-28T05:16:50;98581.88;;;4.86;100.00
70815;BME280;58428;49.478;10.986;2023-12-28T05:19:16;98592.59;;;4.86;100.00
70815;BME280;58428;49.478;10.986;2023-12-28T05:21:49;98588.84;;;4.87;100.00
70815;BME280;58428;49.478;10.986;2023-12-28T05:24:14;98595.81;;;4.88;100.00
70815;BME280;58428;49.478;10.986;2023-12-28T05:26:41;98595.72;;;4.93;100.00
70815;BME280;58428;49.478;10.986;2023-12-28T05:29:06;98594.06;;;4.97;100.00
70815;BME280;58428;49.478;10.986;2023-12-28T05:31:33;98604.25;;;5.00;100.00
70815;BME280;58428;49.478;10.986;2023-12-28T05:33:58;98596.44;;;5.04;100.00
70815;BME280;58428;49.478;10.986;2023-12-28T05:36:24;98606.00;;;5.10;100.00
70815;BME280;58428;49.478;10.986;2023-12-28T05:38:50;98619.13;;;5.11;100.00
70815;BME280;58428;49.478;10.986;2023-12-28T05:41:17;98604.34;;;5.13;100.00
70815;BME280;58428;49.478;10.986;2023-12-28T05:43:44;98626.59;;;5.14;100.00
70815;BME280;58428;49.478;10.986;2023-12-28T05:46:10;98628.88;;;5.25;100.00
70815;BME280;58428;49.478;10.986;2023-12-28T05:48:35;98624.03;;;5.27;100.00
70815;BME280;58428;49.478;10.986;2023-12-28T05:51:01;98628.97;;;5.39;100.00
70815;BME280;58428;49.478;10.986;2023-12-28T05:53:27;98632.09;;;5.46;100.00
70815;BME280;58428;49.478;10.986;2023-12-28T05:55:53;98629.34;;;5.50;100.00
70815;BME280;58428;49.478;10.986;2023-12-28T05:58:19;98639.81;;;5.52;100.00
70815;BME280;58428;49.478;10.986;2023-12-28T06:00:44;98639.44;;;5.58;100.00
70815;BME280;58428;49.478;10.986;2023-12-28T06:03:11;98635.34;;;5.66;100.00
70815;BME280;58428;49.478;10.986;2023-12-28T06:05:37;98641.66;;;5.75;100.00
70815;BME280;58428;49.478;10.986;2023-12-28T06:08:03;98634.94;;;5.77;100.00
70815;BME280;58428;49.478;10.986;2023-12-28T06:10:29;98641.59;;;5.80;100.00
70815;BME280;58428;49.478;10.986;2023-12-28T06:12:54;98643.91;;;5.86;100.00
70815;BME280;58428;49.478;10.986;2023-12-28T06:15:23;98642.47;;;5.93;100.00
70815;BME280;58428;49.478;10.986;2023-12-28T06:17:49;98636.22;;;5.98;100.00
70815;BME280;58428;49.478;10.986;2023-12-28T06:20:15;98644.22;;;6.03;100.00
70815;BME280;58428;49.478;10.986;2023-12-28T06:22:41;98642.03;;;6.05;100.00
70815;BME280;58428;49.478;10.986;2023-12-28T06:25:08;98629.91;;;6.07;100.00
70815;BME280;58428;49.478;10.986;2023-12-28T06:27:42;98617.81;;;6.10;100.00
70815;BME280;58428;49.478;10.986;2023-12-28T06:30:08;98607.41;;;6.03;100.00
70815;BME280;58428;49.478;10.986;2023-12-28T06:32:33;98618.41;;;5.88;100.00
70815;BME280;58428;49.478;10.986;2023-12-28T06:34:59;98634.28;;;5.85;100.00
70815;BME280;58428;49.478;10.986;2023-12-28T06:37:24;98634.56;;;5.84;100.00
70815;BME280;58428;49.478;10.986;2023-12-28T06:39:50;98633.13;;;5.91;100.00
70815;BME280;58428;49.478;10.986;2023-12-28T06:42:15;98637.84;;;5.99;100.00
70815;BME280;58428;49.478;10.986;2023-12-28T06:44:42;98630.00;;;6.02;100.00
70815;BME280;58428;49.478;10.986;2023-12-28T06:47:09;98637.69;;;6.09;100.00
70815;BME280;58428;49.478;10.986;2023-12-28T06:49:39;98635.00;;;6.09;100.00
70815;BME280;58428;49.478;10.986;2023-12-28T06:52:05;98636.00;;;6.13;100.00
70815;BME280;58428;49.478;10.986;2023-12-28T06:54:32;98646.38;;;6.19;100.00
70815;BME280;58428;49.478;10.986;2023-12-28T06:57:00;98652.56;;;6.20;100.00
70815;BME280;58428;49.478;10.986;2023-12-28T06:59:26;98652.47;;;6.24;100.00
70815;BME280;58428;49.478;10.986;2023-12-28T07:01:52;98651.00;;;6.32;100.00
70815;BME280;58428;49.478;10.986;2023-12-28T07:04:20;98661.69;;;6.37;100.00
70815;BME280;58428;49.478;10.986;2023-12-28T07:06:46;98656.72;;;6.44;100.00
70815;BME280;58428;49.478;10.986;2023-12-28T07:09:14;98675.31;;;6.40;100.00
70815;BME280;58428;49.478;10.986;2023-12-28T07:11:40;98677.16;;;6.45;100.00
70815;BME280;58428;49.478;10.986;2023-12-28T07:14:05;98673.78;;;6.53;100.00
70815;BME280;58428;49.478;10.986;2023-12-28T07:16:31;98675.75;;;6.47;100.00
70815;BME280;58428;49.478;10.986;2023-12-28T07:18:56;98678.06;;;6.54;100.00
70815;BME280;58428;49.478;10.986;2023-12-28T07:21:22;98677.41;;;6.61;100.00
70815;BME280;58428;49.478;10.986;2023-12-28T07:23:47;98671.94;;;6.66;100.00
70815;BME280;58428;49.478;10.986;2023-12-28T07:26:15;98676.44;;;6.71;100.00
70815;BME280;58428;49.478;10.986;2023-12-28T07:28:40;98677.16;;;6.76;100.00
70815;BME280;58428;49.478;10.986;2023-12-28T07:31:08;98685.00;;;6.73;100.00
70815;BME280;58428;49.478;10.986;2023-12-28T07:33:35;98683.72;;;6.70;100.00
70815;BME280;58428;49.478;10.986;2023-12-28T07:36:00;98695.91;;;6.63;100.00
70815;BME280;58428;49.478;10.986;2023-12-28T07:38:28;98694.47;;;6.70;100.00
70815;BME280;58428;49.478;10.986;2023-12-28T07:40:54;98684.31;;;6.81;100.00
70815;BME280;58428;49.478;10.986;2023-12-28T07:43:21;98680.44;;;6.87;100.00
70815;BME280;58428;49.478;10.986;2023-12-28T07:45:55;98684.53;;;6.84;100.00
70815;BME280;58428;49.478;10.986;2023-12-28T07:48:24;98687.66;;;6.91;100.00
70815;BME280;58428;49.478;10.986;2023-12-28T07:50:52;98688.84;;;6.98;100.00
70815;BME280;58428;49.478;10.986;2023-12-28T07:53:19;98693.44;;;6.98;100.00
70815;BME280;58428;49.478;10.986;2023-12-28T07:55:44;98694.44;;;7.02;100.00
70815;BME280;58428;49.478;10.986;2023-12-28T07:58:11;98694.94;;;7.04;100.00
70815;BME280;58428;49.478;10.986;2023-12-28T08:00:37;98691.06;;;7.10;100.00
70815;BME280;58428;49.478;10.986;2023-12-28T08:03:05;98679.44;;;7.14;100.00
70815;BME280;58428;49.478;10.986;2023-12-28T08:05:31;98684.81;;;7.14;100.00
70815;BME280;58428;49.478;10.986;2023-12-28T08:07:56;98691.38;;;7.08;100.00
70815;BME280;58428;49.478;10.986;2023-12-28T08:10:24;98673.63;;;7.07;100.00
70815;BME280;58428;49.478;10.986;2023-12-28T08:12:51;98671.94;;;7.11;100.00
70815;BME280;58428;49.478;10.986;2023-12-28T08:15:16;98687.66;;;7.04;100.00
70815;BME280;58428;49.478;10.986;2023-12-28T08:17:44;98684.31;;;7.12;100.00
70815;BME280;58428;49.478;10.986;2023-12-28T08:20:10;98679.59;;;7.18;100.00
70815;BME280;58428;49.478;10.986;2023-12-28T08:22:35;98676.84;;;7.23;100.00
70815;BME280;58428;49.478;10.986;2023-12-28T08:25:03;98681.78;;;7.16;100.00
70815;BME280;58428;49.478;10.986;2023-12-28T08:27:28;98669.25;;;7.11;100.00
70815;BME280;58428;49.478;10.986;2023-12-28T08:29:56;98685.47;;;7.20;100.00
70815;BME280;58428;49.478;10.986;2023-12-28T08:32:24;98678.81;;;7.17;100.00
70815;BME280;58428;49.478;10.986;2023-12-28T08:34:50;98677.91;;;7.22;100.00
70815;BME280;58428;49.478;10.986;2023-12-28T08:37:18;98679.81;;;7.21;100.00
70815;BME280;58428;49.478;10.986;2023-12-28T08:39:49;98684.91;;;7.23;100.00
70815;BME280;58428;49.478;10.986;2023-12-28T08:42:15;98676.22;;;7.26;100.00
70815;BME280;58428;49.478;10.986;2023-12-28T08:44:41;98674.75;;;7.33;100.00
70815;BME280;58428;49.478;10.986;2023-12-28T08:47:06;98675.44;;;7.38;100.00
70815;BME280;58428;49.478;10.986;2023-12-28T08:49:32;98681.81;;;7.42;100.00
70815;BME280;58428;49.478;10.986;2023-12-28T08:51:59;98691.09;;;7.50;100.00
70815;BME280;58428;49.478;10.986;2023-12-28T08:54:29;98698.06;;;7.51;100.00
70815;BME280;58428;49.478;10.986;2023-12-28T08:56:56;98699.16;;;7.50;100.00
70815;BME280;58428;49.478;10.986;2023-12-28T08:59:21;98703.56;;;7.59;100.00
70815;BME280;58428;49.478;10.986;2023-12-28T09:01:53;98707.13;;;7.68;100.00
70815;BME280;58428;49.478;10.986;2023-12-28T09:04:21;98704.75;;;7.67;100.00
70815;BME280;58428;49.478;10.986;2023-12-28T09:06:47;98699.75;;;7.73;100.00
70815;BME280;58428;49.478;10.986;2023-12-28T09:09:12;98699.16;;;7.76;100.00
70815;BME280;58428;49.478;10.986;2023-12-28T09:11:38;98702.03;;;7.80;100.00
70815;BME280;58428;49.478;10.986;2023-12-28T09:14:09;98702.16;;;7.88;100.00
70815;BME280;58428;49.478;10.986;2023-12-28T09:17:03;98694.44;;;7.95;100.00
70815;BME280;58428;49.478;10.986;2023-12-28T09:19:29;98700.03;;;7.99;100.00
70815;BME280;58428;49.478;10.986;2023-12-28T09:21:58;98707.69;;;8.05;100.00
70815;BME280;58428;49.478;10.986;2023-12-28T09:24:24;98713.69;;;8.02;100.00
70815;BME280;58428;49.478;10.986;2023-12-28T09:26:49;98715.09;;;8.00;100.00
70815;BME280;58428;49.478;10.986;2023-12-28T09:29:18;98721.06;;;7.97;100.00
70815;BME280;58428;49.478;10.986;2023-12-28T09:31:45;98723.78;;;7.97;100.00
70815;BME280;58428;49.478;10.986;2023-12-28T09:34:11;98715.41;;;7.98;100.00
70815;BME280;58428;49.478;10.986;2023-12-28T09:36:39;98709.88;;;8.03;100.00
70815;BME280;58428;49.478;10.986;2023-12-28T09:39:16;98713.69;;;8.02;100.00
70815;BME280;58428;49.478;10.986;2023-12-28T09:45:17;98694.41;;;8.08;100.00
70815;BME280;58428;49.478;10.986;2023-12-28T09:47:59;98698.94;;;8.13;100.00
70815;BME280;58428;49.478;10.986;2023-12-28T09:50:31;98702.63;;;8.17;100.00
70815;BME280;58428;49.478;10.986;2023-12-28T09:55:34;98701.78;;;8.30;100.00
70815;BME280;58428;49.478;10.986;2023-12-28T09:58:03;98696.38;;;8.30;100.00
70815;BME280;58428;49.478;10.986;2023-12-28T10:00:40;98688.69;;;8.37;100.00
70815;BME280;58428;49.478;10.986;2023-12-28T10:03:06;98683.59;;;8.35;100.00
70815;BME280;58428;49.478;10.986;2023-12-28T10:05:40;98681.09;;;8.39;100.00
70815;BME280;58428;49.478;10.986;2023-12-28T10:08:15;98682.25;;;8.46;100.00
70815;BME280;58428;49.478;10.986;2023-12-28T10:10:46;98686.09;;;8.53;100.00
70815;BME280;58428;49.478;10.986;2023-12-28T10:13:16;98684.72;;;8.56;100.00
70815;BME280;58428;49.478;10.986;2023-12-28T10:15:43;98684.47;;;8.66;100.00
70815;BME280;58428;49.478;10.986;2023-12-28T10:18:09;98680.84;;;8.70;100.00
70815;BME280;58428;49.478;10.986;2023-12-28T10:20:37;98681.72;;;8.79;100.00
70815;BME280;58428;49.478;10.986;2023-12-28T10:23:04;98676.53;;;8.91;100.00
70815;BME280;58428;49.478;10.986;2023-12-28T10:25:31;98658.81;;;8.98;100.00
70815;BME280;58428;49.478;10.986;2023-12-28T10:28:04;98671.38;;;9.03;100.00
70815;BME280;58428;49.478;10.986;2023-12-28T10:30:30;98669.16;;;9.05;100.00
70815;BME280;58428;49.478;10.986;2023-12-28T10:33:04;98676.31;;;9.09;100.00
70815;BME280;58428;49.478;10.986;2023-12-28T10:35:33;98670.66;;;9.19;100.00
70815;BME280;58428;49.478;10.986;2023-12-28T10:38:02;98664.66;;;9.30;100.00
70815;BME280;58428;49.478;10.986;2023-12-28T10:40:29;98668.00;;;9.27;100.00
70815;BME280;58428;49.478;10.986;2023-12-28T10:42:59;98668.16;;;9.31;100.00
70815;BME280;58428;49.478;10.986;2023-12-28T10:45:29;98665.53;;;9.39;100.00
70815;BME280;58428;49.478;10.986;2023-12-28T10:48:11;98672.34;;;9.37;100.00
70815;BME280;58428;49.478;10.986;2023-12-28T10:50:46;98667.44;;;9.39;100.00
70815;BME280;58428;49.478;10.986;2023-12-28T10:53:24;98666.97;;;9.45;100.00
70815;BME280;58428;49.478;10.986;2023-12-28T10:58:48;98666.03;;;9.58;100.00
70815;BME280;58428;49.478;10.986;2023-12-28T11:01:19;98658.47;;;9.68;100.00
70815;BME280;58428;49.478;10.986;2023-12-28T11:04:02;98650.38;;;9.77;100.00
70815;BME280;58428;49.478;10.986;2023-12-28T11:06:33;98654.03;;;9.81;100.00
70815;BME280;58428;49.478;10.986;2023-12-28T11:08:59;98647.53;;;9.82;100.00
70815;BME280;58428;49.478;10.986;2023-12-28T11:11:26;98643.72;;;9.83;100.00
70815;BME280;58428;49.478;10.986;2023-12-28T11:13:56;98649.41;;;9.81;100.00
70815;BME280;58428;49.478;10.986;2023-12-28T11:16:25;98647.06;;;9.88;100.00
70815;BME280;58428;49.478;10.986;2023-12-28T11:18:53;98638.38;;;9.91;100.00
70815;BME280;58428;49.478;10.986;2023-12-28T11:21:23;98639.31;;;9.95;100.00
70815;BME280;58428;49.478;10.986;2023-12-28T11:23:49;98640.91;;;9.96;100.00
70815;BME280;58428;49.478;10.986;2023-12-28T11:26:19;98643.78;;;9.99;100.00
70815;BME280;58428;49.478;10.986;2023-12-28T11:28:50;98640.91;;;9.96;100.00
70815;BME280;58428;49.478;10.986;2023-12-28T11:31:17;98645.81;;;10.02;100.00
70815;BME280;58428;49.478;10.986;2023-12-28T11:33:47;98643.00;;;10.07;100.00
70815;BME280;58428;49.478;10.986;2023-12-28T11:36:40;98649.97;;;10.08;100.00
70815;BME280;58428;49.478;10.986;2023-12-28T11:39:09;98645.69;;;10.07;100.00
70815;BME280;58428;49.478;10.986;2023-12-28T11:41:38;98639.81;;;10.05;100.00
70815;BME280;58428;49.478;10.986;2023-12-28T11:44:03;98636.75;;;9.98;100.00
70815;BME280;58428;49.478;10.986;2023-12-28T11:46:34;98642.16;;;9.98;100.00
70815;BME280;58428;49.478;10.986;2023-12-28T11:49:05;98638.38;;;9.99;100.00
70815;BME280;58428;49.478;10.986;2023-12-28T11:51:33;98642.50;;;9.97;100.00
70815;BME280;58428;49.478;10.986;2023-12-28T11:54:02;98648.88;;;10.01;100.00
70815;BME280;58428;49.478;10.986;2023-12-28T11:56:29;98639.00;;;10.05;100.00
70815;BME280;58428;49.478;10.986;2023-12-28T11:58:55;98636.16;;;10.01;100.00
70815;BME280;58428;49.478;10.986;2023-12-28T12:01:22;98626.91;;;10.02;100.00
70815;BME280;58428;49.478;10.986;2023-12-28T12:03:48;98622.63;;;10.10;100.00
70815;BME280;58428;49.478;10.986;2023-12-28T12:06:15;98613.59;;;10.14;100.00
70815;BME280;58428;49.478;10.986;2023-12-28T12:08:45;98614.84;;;10.17;100.00
70815;BME280;58428;49.478;10.986;2023-12-28T12:11:11;98611.97;;;10.13;100.00
70815;BME280;58428;49.478;10.986;2023-12-28T12:13:37;98622.16;;;10.16;100.00
70815;BME280;58428;49.478;10.986;2023-12-28T12:16:02;98601.81;;;10.19;100.00
70815;BME280;58428;49.478;10.986;2023-12-28T12:18:34;98603.38;;;10.20;100.00
70815;BME280;58428;49.478;10.986;2023-12-28T12:21:00;98602.28;;;10.21;100.00
70815;BME280;58428;49.478;10.986;2023-12-28T12:23:26;98600.22;;;10.26;100.00
70815;BME280;58428;49.478;10.986;2023-12-28T12:25:51;98592.59;;;10.28;100.00
70815;BME280;58428;49.478;10.986;2023-12-28T12:28:17;98600.69;;;10.28;100.00
70815;BME280;58428;49.478;10.986;2023-12-28T12:31:09;98604.81;;;10.26;100.00
70815;BME280;58428;49.478;10.986;2023-12-28T12:33:34;98595.75;;;10.30;100.00
70815;BME280;58428;49.478;10.986;2023-12-28T12:36:00;98607.69;;;10.29;100.00
70815;BME280;58428;49.478;10.986;2023-12-28T12:38:25;98603.22;;;10.25;100.00
70815;BME280;58428;49.478;10.986;2023-12-28T12:40:52;98585.41;;;10.32;100.00
70815;BME280;58428;49.478;10.986;2023-12-28T12:43:17;98587.66;;;10.30;100.00
70815;BME280;58428;49.478;10.986;2023-12-28T12:45:44;98588.94;;;10.24;100.00
70815;BME280;58428;49.478;10.986;2023-12-28T12:48:12;98600.38;;;10.21;100.00
70815;BME280;58428;49.478;10.986;2023-12-28T12:50:39;98601.78;;;10.27;100.00
70815;BME280;58428;49.478;10.986;2023-12-28T12:53:05;98606.56;;;10.30;100.00
70815;BME280;58428;49.478;10.986;2023-12-28T12:55:33;98604.66;;;10.30;100.00
70815;BME280;58428;49.478;10.986;2023-12-28T12:58:00;98608.34;;;10.26;100.00
70815;BME280;58428;49.478;10.986;2023-12-28T13:00:27;98597.81;;;10.25;100.00
70815;BME280;58428;49.478;10.986;2023-12-28T13:02:52;98595.75;;;10.30;100.00
70815;BME280;58428;49.478;10.986;2023-12-28T13:05:20;98580.66;;;10.37;100.00
70815;BME280;58428;49.478;10.986;2023-12-28T13:07:46;98580.94;;;10.44;100.00
70815;BME280;58428;49.478;10.986;2023-12-28T13:10:12;98573.44;;;10.50;100.00
70815;BME280;58428;49.478;10.986;2023-12-28T13:12:39;98581.38;;;10.55;100.00
70815;BME280;58428;49.478;10.986;2023-12-28T13:15:06;98581.22;;;10.60;100.00
70815;BME280;58428;49.478;10.986;2023-12-28T13:17:34;98587.13;;;10.62;100.00
70815;BME280;58428;49.478;10.986;2023-12-28T13:20:05;98589.66;;;10.58;100.00
70815;BME280;58428;49.478;10.986;2023-12-28T13:22:34;98586.81;;;10.63;100.00
70815;BME280;58428;49.478;10.986;2023-12-28T13:25:00;98588.84;;;10.66;100.00
70815;BME280;58428;49.478;10.986;2023-12-28T13:27:28;98585.69;;;10.56;100.00
70815;BME280;58428;49.478;10.986;2023-12-28T13:29:54;98583.47;;;10.58;100.00
70815;BME280;58428;49.478;10.986;2023-12-28T13:32:20;98584.28;;;10.50;100.00
70815;BME280;58428;49.478;10.986;2023-12-28T13:34:47;98585.72;;;10.47;100.00
70815;BME280;58428;49.478;10.986;2023-12-28T13:37:13;98578.88;;;10.50;100.00
70815;BME280;58428;49.478;10.986;2023-12-28T13:39:39;98589.69;;;10.50;100.00
70815;BME280;58428;49.478;10.986;2023-12-28T13:42:06;98590.47;;;10.50;100.00
70815;BME280;58428;49.478;10.986;2023-12-28T13:44:35;98595.88;;;10.50;100.00
70815;BME280;58428;49.478;10.986;2023-12-28T13:47:01;98595.72;;;10.47;100.00
70815;BME280;58428;49.478;10.986;2023-12-28T13:49:27;98599.72;;;10.49;100.00
70815;BME280;58428;49.478;10.986;2023-12-28T13:51:52;98597.97;;;10.53;100.00
70815;BME280;58428;49.478;10.986;2023-12-28T13:54:18;98599.22;;;10.56;100.00
70815;BME280;58428;49.478;10.986;2023-12-28T13:56:47;98604.63;;;10.56;100.00
70815;BME280;58428;49.478;10.986;2023-12-28T13:59:14;98605.41;;;10.56;100.00
70815;BME280;58428;49.478;10.986;2023-12-28T14:01:41;98605.91;;;10.50;100.00
70815;BME280;58428;49.478;10.986;2023-12-28T14:04:08;98597.81;;;10.50;100.00
70815;BME280;58428;49.478;10.986;2023-12-28T14:06:37;98599.25;;;10.47;100.00
70815;BME280;58428;49.478;10.986;2023-12-28T14:09:02;98599.25;;;10.47;100.00
70815;BME280;58428;49.478;10.986;2023-12-28T14:11:27;98599.56;;;10.46;100.00
70815;BME280;58428;49.478;10.986;2023-12-28T14:13:55;98595.91;;;10.42;100.00
70815;BME280;58428;49.478;10.986;2023-12-28T14:16:20;98596.69;;;10.42;100.00
70815;BME280;58428;49.478;10.986;2023-12-28T14:18:45;98594.31;;;10.41;100.00
70815;BME280;58428;49.478;10.986;2023-12-28T14:21:12;98596.53;;;10.39;100.00
70815;BME280;58428;49.478;10.986;2023-12-28T14:23:38;98592.41;;;10.41;100.00
70815;BME280;58428;49.478;10.986;2023-12-28T14:26:13;98598.59;;;10.42;100.00
70815;BME280;58428;49.478;10.986;2023-12-28T14:28:40;98594.31;;;10.41;100.00
70815;BME280;58428;49.478;10.986;2023-12-28T14:31:07;98589.06;;;10.36;100.00
70815;BME280;58428;49.478;10.986;2023-12-28T14:33:33;98593.06;;;10.30;100.00
70815;BME280;58428;49.478;10.986;2023-12-28T14:35:59;98589.69;;;10.33;100.00
70815;BME280;58428;49.478;10.986;2023-12-28T14:38:25;98591.63;;;10.32;100.00
70815;BME280;58428;49.478;10.986;2023-12-28T14:40:51;98591.63;;;10.32;100.00
70815;BME280;58428;49.478;10.986;2023-12-28T14:43:22;98586.69;;;10.34;100.00
70815;BME280;58428;49.478;10.986;2023-12-28T14:45:50;98577.63;;;10.30;100.00
70815;BME280;58428;49.478;10.986;2023-12-28T14:48:28;98579.66;;;10.33;100.00
70815;BME280;58428;49.478;10.986;2023-12-28T14:51:04;98580.16;;;10.35;100.00
70815;BME280;58428;49.478;10.986;2023-12-28T14:53:29;98584.59;;;10.31;100.00